createdAt,value
2023-05-14T00:00:38.354Z,7.60
2023-05-14T00:01:38.405Z,7.70
2023-05-14T00:02:38.392Z,7.40
2023-05-14T00:03:38.376Z,7.80
2023-05-14T00:04:38.470Z,8.00
2023-05-14T00:05:38.324Z,7.70
2023-05-14T00:06:38.366Z,7.70
2023-05-14T00:07:38.283Z,7.50
2023-05-14T00:08:38.275Z,7.20
2023-05-14T00:09:38.267Z,7.80
2023-05-14T00:10:38.276Z,8.00
2023-05-14T00:11:38.308Z,8.10
2023-05-14T00:12:38.247Z,7.80
2023-05-14T00:13:38.227Z,7.70
2023-05-14T00:14:39.219Z,8.20
2023-05-14T00:15:38.343Z,8.20
2023-05-14T00:16:38.274Z,8.20
2023-05-14T00:17:38.253Z,8.30
2023-05-14T00:18:38.188Z,8.20
2023-05-14T00:19:38.197Z,8.40
2023-05-14T00:20:38.187Z,8.70
2023-05-14T00:21:38.149Z,8.40
2023-05-14T00:22:38.148Z,8.30
2023-05-14T00:23:38.121Z,8.60
2023-05-14T00:24:38.136Z,8.30
2023-05-14T00:25:38.151Z,8.20
2023-05-14T00:26:38.102Z,8.10
2023-05-14T00:27:38.078Z,8.00
2023-05-14T00:28:38.089Z,8.60
2023-05-14T00:29:38.094Z,8.20
2023-05-14T00:30:38.077Z,8.60
2023-05-14T00:31:38.130Z,8.70
2023-05-14T00:32:38.109Z,8.80
2023-05-14T00:33:38.041Z,8.80
2023-05-14T00:34:38.061Z,9.30
2023-05-14T00:35:38.037Z,8.90
2023-05-14T00:36:38.009Z,9.10
2023-05-14T00:37:37.992Z,9.00
2023-05-14T00:38:38.025Z,9.10
2023-05-14T00:39:37.994Z,9.30
2023-05-14T00:40:37.974Z,9.10
2023-05-14T00:41:37.945Z,9.00
2023-05-14T00:42:37.938Z,9.30
2023-05-14T00:43:37.953Z,9.80
2023-05-14T00:44:37.946Z,9.40
2023-05-14T00:45:37.902Z,9.00
2023-05-14T00:46:37.932Z,9.80
2023-05-14T00:47:37.973Z,10.90
2023-05-14T00:48:37.935Z,10.10
2023-05-14T00:49:37.879Z,10.40
2023-05-14T00:50:37.872Z,9.50
2023-05-14T00:51:37.851Z,9.50
2023-05-14T00:52:37.877Z,9.30
2023-05-14T00:53:37.950Z,9.70
2023-05-14T00:54:37.829Z,9.60
2023-05-14T00:55:37.816Z,9.80
2023-05-14T00:56:37.809Z,9.20
2023-05-14T00:57:37.820Z,9.00
2023-05-14T00:58:37.777Z,8.60
2023-05-14T00:59:37.774Z,9.30
2023-05-14T01:00:37.793Z,8.50
2023-05-14T01:01:37.752Z,7.50
2023-05-14T01:02:37.852Z,7.30
2023-05-14T01:03:37.868Z,7.50
2023-05-14T01:04:37.729Z,7.30
2023-05-14T01:05:37.729Z,6.90
2023-05-14T01:06:37.704Z,7.00
2023-05-14T01:07:37.734Z,7.20
2023-05-14T01:08:37.680Z,6.90
2023-05-14T01:09:37.677Z,7.10
2023-05-14T01:10:37.658Z,7.40
2023-05-14T01:11:37.681Z,7.20
2023-05-14T01:12:37.648Z,7.10
2023-05-14T01:13:37.635Z,7.10
2023-05-14T01:14:37.620Z,7.40
2023-05-14T01:15:37.616Z,7.50
2023-05-14T01:16:37.666Z,7.00
2023-05-14T01:17:37.654Z,7.30
2023-05-14T01:18:37.676Z,7.50
2023-05-14T01:19:37.562Z,7.20
2023-05-14T01:20:37.582Z,7.60
2023-05-14T01:21:37.594Z,7.80
2023-05-14T01:22:37.542Z,7.20
2023-05-14T01:23:37.537Z,7.40
2023-05-14T01:24:37.538Z,7.40
2023-05-14T01:25:37.545Z,7.30
2023-05-14T01:26:37.538Z,7.20
2023-05-14T01:27:37.507Z,7.90
2023-05-14T01:28:37.488Z,7.50
2023-05-14T01:29:37.477Z,7.60
2023-05-14T01:30:37.506Z,7.60
2023-05-14T01:31:37.494Z,7.30
2023-05-14T01:32:37.492Z,7.70
2023-05-14T01:33:37.447Z,8.20
2023-05-14T01:34:37.439Z,8.10
2023-05-14T01:35:37.466Z,7.80
2023-05-14T01:36:38.414Z,7.90
2023-05-14T01:37:37.422Z,7.90
2023-05-14T01:38:37.393Z,8.20
2023-05-14T01:39:37.403Z,8.00
2023-05-14T01:40:37.381Z,8.20
2023-05-14T01:41:37.362Z,8.10
2023-05-14T01:42:37.351Z,8.10
2023-05-14T01:43:37.406Z,8.40
2023-05-14T01:44:37.347Z,8.30
2023-05-14T01:45:37.315Z,8.40
2023-05-14T01:46:38.388Z,8.50
2023-05-14T01:47:37.321Z,7.90
2023-05-14T01:48:37.346Z,8.70
2023-05-14T01:49:37.305Z,8.30
2023-05-14T01:50:37.269Z,8.30
2023-05-14T01:51:37.261Z,8.60
2023-05-14T01:52:37.264Z,8.60
2023-05-14T01:53:37.278Z,8.70
2023-05-14T01:54:38.230Z,8.60
2023-05-14T01:55:37.220Z,8.60
2023-05-14T01:56:37.229Z,9.20
2023-05-14T01:57:37.199Z,8.30
2023-05-14T01:58:37.213Z,8.50
2023-05-14T01:59:37.183Z,8.50
2023-05-14T02:00:37.189Z,8.70
2023-05-14T02:01:37.198Z,8.60
2023-05-14T02:02:37.265Z,8.70
2023-05-14T02:03:37.170Z,8.90
2023-05-14T02:04:37.143Z,8.50
2023-05-14T02:05:37.125Z,8.80
2023-05-14T02:06:37.147Z,8.50
2023-05-14T02:07:37.144Z,8.20
2023-05-14T02:08:37.100Z,8.40
2023-05-14T02:09:37.102Z,8.20
2023-05-14T02:10:37.088Z,9.00
2023-05-14T02:11:37.090Z,8.50
2023-05-14T02:12:37.075Z,8.80
2023-05-14T02:13:37.053Z,8.60
2023-05-14T02:14:37.055Z,8.80
2023-05-14T02:15:37.055Z,8.20
2023-05-14T02:16:37.015Z,8.30
2023-05-14T02:17:38.079Z,8.50
2023-05-14T02:18:37.039Z,7.80
2023-05-14T02:19:37.009Z,8.40
2023-05-14T02:20:36.975Z,8.20
2023-05-14T02:21:36.966Z,8.00
2023-05-14T02:22:36.965Z,8.30
2023-05-14T02:23:41.567Z,8.70
2023-05-14T02:24:38.976Z,8.50
2023-05-14T02:25:36.946Z,8.50
2023-05-14T02:26:36.951Z,8.90
2023-05-14T02:27:36.954Z,8.40
2023-05-14T02:28:36.909Z,8.50
2023-05-14T02:29:36.910Z,8.40
2023-05-14T02:30:36.897Z,8.60
2023-05-14T02:31:36.929Z,8.10
2023-05-14T02:32:36.943Z,8.50
2023-05-14T02:33:37.106Z,8.70
2023-05-14T02:34:36.845Z,8.60
2023-05-14T02:35:36.858Z,9.00
2023-05-14T02:36:36.820Z,8.80
2023-05-14T02:37:36.819Z,9.00
2023-05-14T02:38:36.810Z,8.90
2023-05-14T02:39:36.801Z,9.10
2023-05-14T02:40:36.797Z,9.10
2023-05-14T02:41:36.765Z,9.20
2023-05-14T02:42:36.768Z,8.80
2023-05-14T02:43:36.752Z,8.90
2023-05-14T02:44:36.779Z,9.00
2023-05-14T02:45:36.761Z,9.00
2023-05-14T02:46:36.787Z,8.40
2023-05-14T02:47:38.161Z,8.50
2023-05-14T02:48:37.714Z,9.10
2023-05-14T02:49:36.715Z,8.70
2023-05-14T02:50:36.694Z,8.90
2023-05-14T02:51:36.690Z,8.90
2023-05-14T02:52:36.706Z,8.80
2023-05-14T02:53:36.651Z,8.50
2023-05-14T02:54:37.683Z,9.50
2023-05-14T02:55:36.653Z,9.00
2023-05-14T02:56:36.642Z,8.60
2023-05-14T02:57:36.647Z,8.50
2023-05-14T02:58:36.636Z,9.10
2023-05-14T02:59:36.625Z,8.80
2023-05-14T03:00:36.595Z,8.60
2023-05-14T03:01:36.591Z,9.10
2023-05-14T03:02:36.653Z,8.40
2023-05-14T03:03:36.609Z,8.30
2023-05-14T03:04:36.558Z,8.40
2023-05-14T03:05:36.545Z,8.50
2023-05-14T03:06:36.538Z,8.40
2023-05-14T03:07:36.591Z,8.60
2023-05-14T03:08:36.540Z,8.20
2023-05-14T03:09:38.312Z,8.40
2023-05-14T03:10:37.493Z,8.10
2023-05-14T03:11:36.486Z,7.60
2023-05-14T03:12:36.546Z,7.70
2023-05-14T03:13:36.472Z,7.80
2023-05-14T03:14:36.449Z,8.10
2023-05-14T03:15:36.462Z,8.10
2023-05-14T03:16:36.482Z,8.10
2023-05-14T03:17:36.469Z,8.00
2023-05-14T03:18:36.451Z,8.00
2023-05-14T03:19:36.409Z,8.10
2023-05-14T03:20:36.397Z,8.00
2023-05-14T03:21:36.396Z,8.40
2023-05-14T03:22:36.391Z,7.90
2023-05-14T03:23:36.375Z,8.90
2023-05-14T03:24:36.355Z,8.00
2023-05-14T03:25:36.449Z,8.40
2023-05-14T03:26:36.356Z,8.50
2023-05-14T03:27:36.350Z,8.30
2023-05-14T03:28:36.327Z,8.30
2023-05-14T03:29:36.309Z,8.00
2023-05-14T03:30:36.418Z,8.60
2023-05-14T03:31:36.303Z,8.20
2023-05-14T03:32:36.317Z,8.70
2023-05-14T03:33:36.256Z,8.30
2023-05-14T03:34:36.259Z,8.30
2023-05-14T03:35:36.237Z,9.00
2023-05-14T03:36:36.321Z,8.60
2023-05-14T03:37:36.231Z,8.50
2023-05-14T03:38:36.205Z,8.50
2023-05-14T03:39:36.217Z,8.40
2023-05-14T03:40:36.218Z,8.80
2023-05-14T03:41:36.283Z,8.00
2023-05-14T03:42:36.210Z,8.50
2023-05-14T03:43:36.172Z,8.10
2023-05-14T03:44:36.148Z,8.10
2023-05-14T03:45:36.166Z,7.90
2023-05-14T03:46:36.131Z,8.00
2023-05-14T03:48:08.270Z,8.30
2023-05-14T03:48:36.114Z,8.10
2023-05-14T03:49:36.105Z,8.40
2023-05-14T03:50:36.145Z,7.90
2023-05-14T03:51:36.087Z,7.90
2023-05-14T03:52:36.077Z,8.30
2023-05-14T03:53:36.065Z,8.40
2023-05-14T03:54:36.085Z,7.80
2023-05-14T03:55:36.059Z,8.10
2023-05-14T03:56:36.030Z,7.90
2023-05-14T03:57:36.029Z,8.30
2023-05-14T03:58:36.010Z,8.00
2023-05-14T03:59:36.034Z,8.10
2023-05-14T04:00:35.991Z,8.20
2023-05-14T04:01:35.976Z,8.60
2023-05-14T04:02:36.103Z,8.60
2023-05-14T04:03:36.318Z,8.00
2023-05-14T04:04:36.061Z,8.20
2023-05-14T04:05:35.942Z,8.30
2023-05-14T04:06:35.935Z,8.30
2023-05-14T04:07:35.928Z,8.60
2023-05-14T04:08:35.974Z,8.30
2023-05-14T04:09:35.921Z,7.90
2023-05-14T04:10:36.014Z,8.10
2023-05-14T04:11:35.884Z,8.10
2023-05-14T04:12:35.883Z,8.00
2023-05-14T04:13:35.866Z,8.40
2023-05-14T04:14:35.851Z,8.10
2023-05-14T04:15:35.908Z,8.10
2023-05-14T04:16:35.876Z,8.20
2023-05-14T04:17:35.869Z,8.10
2023-05-14T04:18:35.914Z,7.60
2023-05-14T04:19:35.835Z,8.00
2023-05-14T04:20:35.794Z,7.70
2023-05-14T04:21:35.789Z,8.20
2023-05-14T04:22:35.815Z,7.80
2023-05-14T04:23:35.776Z,7.90
2023-05-14T04:24:35.770Z,8.00
2023-05-14T04:25:35.753Z,8.20
2023-05-14T04:26:35.750Z,8.10
2023-05-14T04:27:35.750Z,7.60
2023-05-14T04:28:35.720Z,7.80
2023-05-14T04:29:35.714Z,8.10
2023-05-14T04:30:35.696Z,7.70
2023-05-14T04:31:35.704Z,7.60
2023-05-14T04:32:35.745Z,7.80
2023-05-14T04:33:35.667Z,8.10
2023-05-14T04:34:35.669Z,7.70
2023-05-14T04:35:35.675Z,7.80
2023-05-14T04:36:35.658Z,7.50
2023-05-14T04:37:35.667Z,8.00
2023-05-14T04:38:35.623Z,7.80
2023-05-14T04:39:35.616Z,7.70
2023-05-14T04:40:35.592Z,8.00
2023-05-14T04:41:35.620Z,8.00
2023-05-14T04:42:35.625Z,7.40
2023-05-14T04:43:35.582Z,7.60
2023-05-14T04:44:35.561Z,7.50
2023-05-14T04:45:35.621Z,7.60
2023-05-14T04:46:35.616Z,7.80
2023-05-14T04:47:35.564Z,7.80
2023-05-14T04:48:35.542Z,7.80
2023-05-14T04:49:35.521Z,7.70
2023-05-14T04:50:35.544Z,8.00
2023-05-14T04:51:35.515Z,7.40
2023-05-14T04:52:35.500Z,8.10
2023-05-14T04:53:35.486Z,8.30
2023-05-14T04:54:35.514Z,8.00
2023-05-14T04:55:35.477Z,7.70
2023-05-14T04:56:35.443Z,7.80
2023-05-14T04:57:35.443Z,7.70
2023-05-14T04:58:35.458Z,7.40
2023-05-14T04:59:35.415Z,7.50
2023-05-14T05:00:35.414Z,7.60
2023-05-14T05:01:35.419Z,7.20
2023-05-14T05:02:35.420Z,7.60
2023-05-14T05:03:35.461Z,7.10
2023-05-14T05:04:35.374Z,7.00
2023-05-14T05:05:35.370Z,7.10
2023-05-14T05:06:35.359Z,7.20
2023-05-14T05:07:35.340Z,7.80
2023-05-14T05:08:35.323Z,7.70
2023-05-14T05:09:35.357Z,7.00
2023-05-14T05:10:35.311Z,7.20
2023-05-14T05:11:35.307Z,7.30
2023-05-14T05:12:35.292Z,7.20
2023-05-14T05:13:35.288Z,7.60
2023-05-14T05:14:35.296Z,7.70
2023-05-14T05:15:35.420Z,7.60
2023-05-14T05:16:35.287Z,7.50
2023-05-14T05:17:35.274Z,7.50
2023-05-14T05:18:35.309Z,7.40
2023-05-14T05:19:43.187Z,7.60
2023-05-14T05:20:37.211Z,7.40
2023-05-14T05:21:35.201Z,7.90
2023-05-14T05:22:35.179Z,7.70
2023-05-14T05:23:35.210Z,7.60
2023-05-14T05:24:35.177Z,7.60
2023-05-14T05:25:35.158Z,7.60
2023-05-14T05:26:35.151Z,7.50
2023-05-14T05:27:35.136Z,7.30
2023-05-14T05:28:35.137Z,7.80
2023-05-14T05:29:35.127Z,7.70
2023-05-14T05:30:35.115Z,7.80
2023-05-14T05:31:35.142Z,7.90
2023-05-14T05:32:35.112Z,7.80
2023-05-14T05:33:35.112Z,8.30
2023-05-14T05:34:35.077Z,7.90
2023-05-14T05:35:35.057Z,7.60
2023-05-14T05:36:36.042Z,7.70
2023-05-14T05:37:35.085Z,7.20
2023-05-14T05:38:35.037Z,8.10
2023-05-14T05:39:35.328Z,8.20
2023-05-14T05:40:35.016Z,7.90
2023-05-14T05:41:35.009Z,7.50
2023-05-14T05:42:34.995Z,7.80
2023-05-14T05:43:34.976Z,8.20
2023-05-14T05:44:34.956Z,7.60
2023-05-14T05:45:34.947Z,7.90
2023-05-14T05:46:34.987Z,7.50
2023-05-14T05:47:35.016Z,7.90
2023-05-14T05:48:34.918Z,7.40
2023-05-14T05:49:34.925Z,7.50
2023-05-14T05:50:34.903Z,7.70
2023-05-14T05:51:34.928Z,7.90
2023-05-14T05:52:34.879Z,8.30
2023-05-14T05:53:34.870Z,7.40
2023-05-14T05:54:34.877Z,7.80
2023-05-14T05:55:34.852Z,7.50
2023-05-14T05:56:34.917Z,7.70
2023-05-14T05:57:34.847Z,7.40
2023-05-14T05:58:34.833Z,8.00
2023-05-14T05:59:34.837Z,8.00
2023-05-14T06:00:34.818Z,7.60
2023-05-14T06:01:34.812Z,8.50
2023-05-14T06:02:34.951Z,7.50
2023-05-14T06:03:34.788Z,7.80
2023-05-14T06:04:34.786Z,7.50
2023-05-14T06:05:34.861Z,7.40
2023-05-14T06:06:34.760Z,8.10
2023-05-14T06:07:34.768Z,7.70
2023-05-14T06:08:34.729Z,7.70
2023-05-14T06:09:34.742Z,7.30
2023-05-14T06:10:34.746Z,7.70
2023-05-14T06:11:34.694Z,8.00
2023-05-14T06:12:34.706Z,7.90
2023-05-14T06:13:34.678Z,7.90
2023-05-14T06:14:34.684Z,7.60
2023-05-14T06:15:34.684Z,7.90
2023-05-14T06:16:34.791Z,7.60
2023-05-14T06:17:34.648Z,7.70
2023-05-14T06:18:34.658Z,7.70
2023-05-14T06:19:34.642Z,7.80
2023-05-14T06:20:34.623Z,7.10
2023-05-14T06:21:34.612Z,7.90
2023-05-14T06:22:34.594Z,7.60
2023-05-14T06:23:34.576Z,7.60
2023-05-14T06:24:34.595Z,7.40
2023-05-14T06:25:34.556Z,7.50
2023-05-14T06:26:34.543Z,7.90
2023-05-14T06:27:34.538Z,8.30
2023-05-14T06:28:34.539Z,7.40
2023-05-14T06:29:34.542Z,7.40
2023-05-14T06:30:34.506Z,8.00
2023-05-14T06:31:34.526Z,7.70
2023-05-14T06:32:34.503Z,7.20
2023-05-14T06:33:34.500Z,7.80
2023-05-14T06:34:34.466Z,7.00
2023-05-14T06:35:34.463Z,7.50
2023-05-14T06:36:34.443Z,7.20
2023-05-14T06:37:34.436Z,7.00
2023-05-14T06:38:34.456Z,7.60
2023-05-14T06:39:34.417Z,6.90
2023-05-14T06:40:34.413Z,7.10
2023-05-14T06:41:34.415Z,6.80
2023-05-14T06:42:34.408Z,7.00
2023-05-14T06:43:34.428Z,6.70
2023-05-14T06:44:34.377Z,7.00
2023-05-14T06:45:34.379Z,6.80
2023-05-14T06:46:34.351Z,7.00
2023-05-14T06:47:34.384Z,6.80
2023-05-14T06:48:34.383Z,6.90
2023-05-14T06:49:34.320Z,6.80
2023-05-14T06:50:34.314Z,6.40
2023-05-14T06:51:34.306Z,6.50
2023-05-14T06:52:34.304Z,6.40
2023-05-14T06:53:34.279Z,7.10
2023-05-14T06:54:34.275Z,6.70
2023-05-14T06:55:34.257Z,6.80
2023-05-14T06:56:34.271Z,6.80
2023-05-14T06:57:34.284Z,6.70
2023-05-14T06:58:34.234Z,6.20
2023-05-14T06:59:34.220Z,6.70
2023-05-14T07:00:34.223Z,6.60
2023-05-14T07:01:34.269Z,6.40
2023-05-14T07:02:34.276Z,6.10
2023-05-14T07:03:34.173Z,6.30
2023-05-14T07:04:34.183Z,6.40
2023-05-14T07:05:34.196Z,6.60
2023-05-14T07:06:34.179Z,6.70
2023-05-14T07:07:34.138Z,6.10
2023-05-14T07:08:34.131Z,6.30
2023-05-14T07:09:34.127Z,6.20
2023-05-14T07:10:34.146Z,6.30
2023-05-14T07:11:34.111Z,6.40
2023-05-14T07:12:34.096Z,6.40
2023-05-14T07:13:34.080Z,6.40
2023-05-14T07:14:34.071Z,6.30
2023-05-14T07:15:34.073Z,6.10
2023-05-14T07:16:34.126Z,5.80
2023-05-14T07:17:34.093Z,6.20
2023-05-14T07:18:35.040Z,5.90
2023-05-14T07:19:34.029Z,6.00
2023-05-14T07:20:34.041Z,6.10
2023-05-14T07:21:34.007Z,6.30
2023-05-14T07:22:33.987Z,6.20
2023-05-14T07:23:34.989Z,6.50
2023-05-14T07:24:33.995Z,6.30
2023-05-14T07:25:33.980Z,6.00
2023-05-14T07:26:33.965Z,6.70
2023-05-14T07:27:33.951Z,6.50
2023-05-14T07:28:33.944Z,5.90
2023-05-14T07:29:33.940Z,5.60
2023-05-14T07:30:33.917Z,5.60
2023-05-14T07:31:33.981Z,6.00
2023-05-14T07:32:33.917Z,5.60
2023-05-14T07:33:33.887Z,5.90
2023-05-14T07:34:33.921Z,5.80
2023-05-14T07:35:33.875Z,5.90
2023-05-14T07:36:33.852Z,5.80
2023-05-14T07:37:33.856Z,5.40
2023-05-14T07:38:33.858Z,5.90
2023-05-14T07:39:33.838Z,5.80
2023-05-14T07:40:33.840Z,5.90
2023-05-14T07:41:33.835Z,6.00
2023-05-14T07:42:37.091Z,5.60
2023-05-14T07:43:34.839Z,5.70
2023-05-14T07:44:33.793Z,5.80
2023-05-14T07:45:33.769Z,6.20
2023-05-14T07:46:33.788Z,6.20
2023-05-14T07:47:33.826Z,5.70
2023-05-14T07:48:33.796Z,5.50
2023-05-14T07:49:33.730Z,5.80
2023-05-14T07:50:33.718Z,6.00
2023-05-14T07:51:33.715Z,5.60
2023-05-14T07:52:33.718Z,5.90
2023-05-14T07:53:33.692Z,5.80
2023-05-14T07:54:33.748Z,5.40
2023-05-14T07:55:33.678Z,5.70
2023-05-14T07:56:33.711Z,6.00
2023-05-14T07:57:33.679Z,5.50
2023-05-14T07:58:33.635Z,5.70
2023-05-14T07:59:33.654Z,5.90
2023-05-14T08:00:33.625Z,5.80
2023-05-14T08:01:33.612Z,5.50
2023-05-14T08:02:33.661Z,5.70
2023-05-14T08:03:33.671Z,5.90
2023-05-14T08:04:33.730Z,5.70
2023-05-14T08:05:33.584Z,5.50
2023-05-14T08:06:33.611Z,5.50
2023-05-14T08:07:33.547Z,5.60
2023-05-14T08:08:33.549Z,5.80
2023-05-14T08:09:33.536Z,5.80
2023-05-14T08:10:33.556Z,5.60
2023-05-14T08:11:33.544Z,5.60
2023-05-14T08:12:33.503Z,5.40
2023-05-14T08:13:33.496Z,5.20
2023-05-14T08:14:33.496Z,5.10
2023-05-14T08:15:33.472Z,5.10
2023-05-14T08:16:33.494Z,5.40
2023-05-14T08:17:33.481Z,5.10
2023-05-14T08:18:33.462Z,5.10
2023-05-14T08:19:33.445Z,4.90
2023-05-14T08:20:33.482Z,5.40
2023-05-14T08:21:33.422Z,5.30
2023-05-14T08:22:33.403Z,5.20
2023-05-14T08:23:33.522Z,5.40
2023-05-14T08:24:33.391Z,5.10
2023-05-14T08:25:33.396Z,5.40
2023-05-14T08:26:33.384Z,5.00
2023-05-14T08:28:05.257Z,5.10
2023-05-14T08:28:33.388Z,5.40
2023-05-14T08:29:33.340Z,5.20
2023-05-14T08:30:33.410Z,5.30
2023-05-14T08:31:33.364Z,5.20
2023-05-14T08:32:33.350Z,5.20
2023-05-14T08:33:33.396Z,5.10
2023-05-14T08:34:33.327Z,5.30
2023-05-14T08:35:33.323Z,5.10
2023-05-14T08:36:33.281Z,5.00
2023-05-14T08:37:33.250Z,4.70
2023-05-14T08:38:33.258Z,4.90
2023-05-14T08:39:33.259Z,4.60
2023-05-14T08:40:33.233Z,4.60
2023-05-14T08:41:33.218Z,4.80
2023-05-14T08:42:33.232Z,4.70
2023-05-14T08:43:33.212Z,4.80
2023-05-14T08:44:33.234Z,4.80
2023-05-14T08:45:33.181Z,4.70
2023-05-14T08:46:33.176Z,4.60
2023-05-14T08:47:33.206Z,4.60
2023-05-14T08:48:33.305Z,4.60
2023-05-14T08:49:33.189Z,4.20
2023-05-14T08:50:33.140Z,4.10
2023-05-14T08:51:33.117Z,4.60
2023-05-14T08:52:33.114Z,4.60
2023-05-14T08:53:33.122Z,4.20
2023-05-14T08:54:33.093Z,4.60
2023-05-14T08:55:33.087Z,4.50
2023-05-14T08:56:33.078Z,4.10
2023-05-14T08:57:33.059Z,4.10
2023-05-14T08:58:33.936Z,4.30
2023-05-14T08:59:33.042Z,4.00
2023-05-14T09:00:33.031Z,4.20
2023-05-14T09:01:33.050Z,4.20
2023-05-14T09:02:33.040Z,4.00
2023-05-14T09:03:33.085Z,4.20
2023-05-14T09:04:32.997Z,3.80
2023-05-14T09:05:32.969Z,4.00
2023-05-14T09:06:32.959Z,3.90
2023-05-14T09:07:32.967Z,3.90
2023-05-14T09:08:32.989Z,3.90
2023-05-14T09:09:32.974Z,4.10
2023-05-14T09:10:32.926Z,4.10
2023-05-14T09:11:32.933Z,3.80
2023-05-14T09:12:32.923Z,4.20
2023-05-14T09:13:32.900Z,3.90
2023-05-14T09:14:32.896Z,4.10
2023-05-14T09:15:32.905Z,3.60
2023-05-14T09:16:32.948Z,4.10
2023-05-14T09:17:32.890Z,4.40
2023-05-14T09:18:32.871Z,4.00
2023-05-14T09:19:32.867Z,3.90
2023-05-14T09:20:32.855Z,3.80
2023-05-14T09:21:33.502Z,3.70
2023-05-14T09:22:33.846Z,4.10
2023-05-14T09:23:32.803Z,4.20
2023-05-14T09:24:32.794Z,3.90
2023-05-14T09:25:32.783Z,4.10
2023-05-14T09:26:32.797Z,3.70
2023-05-14T09:27:32.764Z,3.80
2023-05-14T09:28:32.754Z,3.80
2023-05-14T09:29:32.756Z,3.60
2023-05-14T09:30:32.760Z,3.90
2023-05-14T09:31:32.778Z,3.80
2023-05-14T09:32:32.750Z,3.60
2023-05-14T09:33:32.692Z,3.90
2023-05-14T09:34:32.697Z,3.70
2023-05-14T09:35:32.721Z,3.50
2023-05-14T09:36:32.669Z,3.60
2023-05-14T09:37:32.688Z,3.90
2023-05-14T09:38:32.657Z,3.90
2023-05-14T09:39:32.691Z,3.90
2023-05-14T09:40:32.661Z,3.80
2023-05-14T09:41:32.625Z,3.40
2023-05-14T09:42:32.620Z,3.60
2023-05-14T09:43:32.608Z,3.60
2023-05-14T09:44:32.627Z,3.50
2023-05-14T09:45:32.597Z,3.50
2023-05-14T09:46:32.578Z,3.70
2023-05-14T09:47:32.723Z,3.60
2023-05-14T09:48:32.588Z,3.80
2023-05-14T09:49:32.560Z,3.70
2023-05-14T09:50:32.535Z,3.80
2023-05-14T09:51:32.523Z,3.70
2023-05-14T09:52:32.540Z,3.90
2023-05-14T09:53:32.515Z,3.70
2023-05-14T09:54:32.517Z,3.80
2023-05-14T09:55:32.502Z,3.90
2023-05-14T09:56:32.495Z,3.50
2023-05-14T09:57:32.517Z,4.00
2023-05-14T09:59:06.887Z,3.80
2023-05-14T09:59:32.458Z,3.80
2023-05-14T10:00:32.453Z,3.60
2023-05-14T10:01:32.473Z,3.70
2023-05-14T10:02:32.462Z,3.80
2023-05-14T10:03:32.448Z,3.70
2023-05-14T10:04:32.571Z,3.70
2023-05-14T10:05:32.397Z,3.70
2023-05-14T10:06:32.392Z,3.50
2023-05-14T10:07:32.384Z,3.60
2023-05-14T10:08:32.422Z,3.40
2023-05-14T10:09:32.361Z,3.90
2023-05-14T10:10:32.355Z,3.60
2023-05-14T10:11:32.341Z,3.40
2023-05-14T10:12:32.331Z,3.70
2023-05-14T10:13:32.345Z,3.70
2023-05-14T10:14:32.313Z,3.70
2023-05-14T10:15:32.308Z,3.80
2023-05-14T10:16:32.301Z,3.20
2023-05-14T10:17:32.332Z,3.60
2023-05-14T10:18:32.339Z,3.80
2023-05-14T10:19:32.255Z,3.60
2023-05-14T10:20:32.256Z,3.90
2023-05-14T10:21:32.253Z,3.70
2023-05-14T10:22:32.254Z,3.70
2023-05-14T10:23:32.258Z,3.40
2023-05-14T10:24:32.270Z,3.50
2023-05-14T10:25:32.210Z,3.60
2023-05-14T10:26:32.264Z,3.30
2023-05-14T10:27:32.216Z,3.00
2023-05-14T10:28:32.175Z,2.90
2023-05-14T10:29:32.170Z,3.50
2023-05-14T10:30:32.167Z,3.10
2023-05-14T10:31:32.215Z,3.60
2023-05-14T10:32:32.173Z,3.90
2023-05-14T10:33:32.124Z,3.30
2023-05-14T10:34:32.145Z,3.30
2023-05-14T10:35:32.105Z,3.50
2023-05-14T10:36:32.125Z,3.30
2023-05-14T10:37:32.145Z,3.20
2023-05-14T10:38:32.083Z,3.00
2023-05-14T10:39:32.070Z,3.50
2023-05-14T10:40:32.087Z,3.30
2023-05-14T10:41:32.056Z,3.30
2023-05-14T10:42:32.032Z,3.50
2023-05-14T10:43:32.029Z,3.40
2023-05-14T10:44:32.044Z,3.50
2023-05-14T10:45:32.036Z,3.30
2023-05-14T10:46:32.012Z,3.20
2023-05-14T10:47:32.017Z,3.30
2023-05-14T10:48:31.983Z,3.20
2023-05-14T10:49:43.017Z,3.00
2023-05-14T10:50:34.052Z,3.30
2023-05-14T10:51:31.982Z,3.60
2023-05-14T10:52:31.936Z,3.70
2023-05-14T10:53:31.930Z,3.40
2023-05-14T10:54:31.975Z,3.50
2023-05-14T10:55:31.954Z,3.10
2023-05-14T10:56:31.898Z,3.30
2023-05-14T10:57:31.909Z,3.40
2023-05-14T10:58:31.887Z,3.10
2023-05-14T10:59:31.884Z,3.40
2023-05-14T11:00:31.844Z,3.20
2023-05-14T11:01:32.900Z,3.20
2023-05-14T11:02:31.859Z,3.00
2023-05-14T11:03:31.878Z,3.20
2023-05-14T11:04:31.864Z,3.20
2023-05-14T11:05:31.803Z,3.10
2023-05-14T11:06:31.801Z,3.00
2023-05-14T11:07:31.812Z,3.00
2023-05-14T11:08:31.804Z,3.00
2023-05-14T11:09:31.797Z,3.00
2023-05-14T11:10:31.773Z,3.20
2023-05-14T11:11:31.758Z,3.00
2023-05-14T11:12:31.745Z,3.10
2023-05-14T11:13:31.740Z,3.00
2023-05-14T11:14:32.737Z,3.10
2023-05-14T11:15:31.711Z,3.20
2023-05-14T11:16:31.732Z,3.00
2023-05-14T11:17:31.733Z,3.20
2023-05-14T11:18:31.723Z,3.10
2023-05-14T11:19:31.678Z,3.20
2023-05-14T11:20:31.680Z,3.00
2023-05-14T11:21:31.820Z,3.10
2023-05-14T11:22:31.675Z,2.80
2023-05-14T11:23:31.651Z,2.80
2023-05-14T11:24:31.623Z,2.90
2023-05-14T11:25:31.971Z,3.00
2023-05-14T11:26:31.690Z,3.00
2023-05-14T11:27:31.620Z,2.90
2023-05-14T11:28:31.585Z,2.90
2023-05-14T11:29:31.598Z,2.90
2023-05-14T11:30:31.576Z,3.10
2023-05-14T11:31:31.682Z,2.90
2023-05-14T11:32:31.561Z,3.10
2023-05-14T11:33:31.544Z,3.10
2023-05-14T11:34:31.539Z,3.20
2023-05-14T11:35:31.505Z,3.10
2023-05-14T11:36:31.506Z,2.80
2023-05-14T11:37:31.497Z,2.90
2023-05-14T11:38:31.500Z,2.90
2023-05-14T11:39:31.474Z,3.30
2023-05-14T11:40:31.460Z,3.20
2023-05-14T11:41:31.464Z,3.00
2023-05-14T11:42:31.441Z,2.90
2023-05-14T11:43:31.435Z,3.10
2023-05-14T11:44:31.427Z,3.00
2023-05-14T11:45:31.410Z,3.20
2023-05-14T11:46:31.503Z,3.00
2023-05-14T11:47:31.415Z,3.00
2023-05-14T11:48:31.384Z,2.90
2023-05-14T11:49:31.388Z,3.10
2023-05-14T11:50:31.386Z,3.10
2023-05-14T11:51:31.354Z,2.90
2023-05-14T11:52:31.366Z,2.60
2023-05-14T11:53:31.369Z,2.90
2023-05-14T11:54:31.349Z,2.70
2023-05-14T11:55:31.313Z,2.80
2023-05-14T11:56:31.310Z,2.90
2023-05-14T11:57:31.308Z,2.80
2023-05-14T11:58:31.280Z,2.80
2023-05-14T11:59:31.274Z,2.80
2023-05-14T12:00:31.285Z,2.60
2023-05-14T12:01:31.266Z,2.80
2023-05-14T12:02:31.306Z,2.70
2023-05-14T12:03:31.356Z,2.50
2023-05-14T12:04:31.286Z,2.40
2023-05-14T12:05:31.234Z,2.60
2023-05-14T12:06:31.205Z,2.40
2023-05-14T12:07:31.229Z,2.40
2023-05-14T12:08:31.182Z,2.40
2023-05-14T12:09:31.172Z,2.60
2023-05-14T12:10:31.162Z,2.60
2023-05-14T12:11:31.155Z,2.50
2023-05-14T12:12:31.167Z,2.80
2023-05-14T12:13:31.169Z,2.50
2023-05-14T12:14:31.143Z,2.40
2023-05-14T12:15:31.122Z,2.30
2023-05-14T12:16:31.244Z,2.50
2023-05-14T12:17:31.119Z,2.60
2023-05-14T12:18:31.308Z,2.40
2023-05-14T12:19:31.153Z,2.60
2023-05-14T12:20:31.062Z,2.50
2023-05-14T12:21:31.049Z,2.50
2023-05-14T12:22:31.053Z,2.50
2023-05-14T12:23:31.063Z,2.60
2023-05-14T12:24:31.026Z,2.80
2023-05-14T12:25:31.014Z,3.20
2023-05-14T12:26:31.025Z,2.80
2023-05-14T12:27:31.068Z,2.60
2023-05-14T12:28:31.022Z,2.60
2023-05-14T12:29:30.973Z,2.60
2023-05-14T12:30:30.966Z,2.30
2023-05-14T12:31:31.001Z,2.50
2023-05-14T12:32:31.012Z,2.80
2023-05-14T12:33:30.972Z,2.70
2023-05-14T12:34:30.937Z,2.90
2023-05-14T12:35:30.910Z,2.80
2023-05-14T12:36:30.926Z,2.70
2023-05-14T12:37:31.322Z,2.60
2023-05-14T12:38:31.893Z,2.50
2023-05-14T12:39:30.880Z,2.70
2023-05-14T12:40:30.873Z,2.70
2023-05-14T12:41:30.867Z,2.50
2023-05-14T12:42:30.873Z,2.60
2023-05-14T12:43:30.838Z,2.50
2023-05-14T12:44:30.826Z,2.60
2023-05-14T12:45:30.860Z,2.70
2023-05-14T12:46:30.916Z,2.70
2023-05-14T12:47:30.853Z,2.60
2023-05-14T12:48:30.790Z,2.90
2023-05-14T12:49:30.813Z,2.90
2023-05-14T12:50:30.778Z,2.90
2023-05-14T12:51:30.770Z,2.80
2023-05-14T12:53:31.760Z,3.10
2023-05-14T12:54:30.739Z,2.70
2023-05-14T12:55:30.723Z,2.70
2023-05-14T12:56:30.722Z,2.80
2023-05-14T12:57:30.691Z,2.80
2023-05-14T12:58:30.700Z,2.60
2023-05-14T12:59:30.672Z,2.80
2023-05-14T13:00:30.671Z,2.60
2023-05-14T13:01:30.750Z,3.00
2023-05-14T13:02:30.650Z,2.60
2023-05-14T13:03:30.646Z,2.70
2023-05-14T13:04:30.672Z,2.60
2023-05-14T13:05:30.643Z,2.70
2023-05-14T13:06:30.623Z,2.80
2023-05-14T13:07:30.602Z,2.70
2023-05-14T13:08:30.597Z,2.80
2023-05-14T13:09:30.584Z,2.50
2023-05-14T13:10:31.602Z,2.70
2023-05-14T13:11:30.566Z,2.80
2023-05-14T13:12:30.551Z,2.70
2023-05-14T13:13:30.540Z,2.80
2023-05-14T13:14:30.547Z,2.80
2023-05-14T13:15:30.528Z,2.70
2023-05-14T13:16:30.528Z,2.80
2023-05-14T13:17:30.531Z,2.90
2023-05-14T13:18:30.509Z,3.40
2023-05-14T13:19:30.509Z,3.50